createdAt,value
2022-08-30T00:02:20.475Z,48.97
2022-08-30T00:04:48.299Z,48.64
2022-08-30T00:07:17.351Z,48.52
2022-08-30T00:09:45.081Z,48.80
2022-08-30T00:12:12.842Z,48.61
2022-08-30T00:14:40.571Z,48.86
2022-08-30T00:17:08.327Z,48.86
2022-08-30T00:19:36.075Z,48.85
2022-08-30T00:22:03.878Z,48.92
2022-08-30T00:24:33.832Z,48.72
2022-08-30T00:27:01.560Z,48.63
2022-08-30T00:29:29.298Z,48.77
2022-08-30T00:31:57.025Z,48.61
2022-08-30T00:34:24.771Z,48.49
2022-08-30T00:36:52.484Z,48.94
2022-08-30T00:39:20.212Z,49.00
2022-08-30T00:41:49.403Z,48.93
2022-08-30T00:44:17.139Z,48.93
2022-08-30T00:46:44.922Z,49.30
2022-08-30T00:49:12.829Z,49.00
2022-08-30T00:51:40.854Z,49.33
2022-08-30T00:54:08.614Z,49.29
2022-08-30T00:56:36.364Z,49.43
2022-08-30T00:59:06.021Z,48.89
2022-08-30T01:01:34.357Z,48.92
2022-08-30T01:04:02.507Z,49.04
2022-08-30T01:06:32.422Z,48.84
2022-08-30T01:09:00.593Z,49.04
2022-08-30T01:11:28.340Z,49.11
2022-08-30T01:13:56.179Z,48.84
2022-08-30T01:16:27.330Z,48.80
2022-08-30T01:18:57.955Z,49.02
2022-08-30T01:21:28.533Z,49.08
2022-08-30T01:24:00.460Z,48.84
2022-08-30T01:26:28.847Z,49.14
2022-08-30T01:28:58.061Z,48.77
2022-08-30T01:31:25.847Z,48.73
2022-08-30T01:33:53.635Z,48.97
2022-08-30T01:36:21.875Z,49.05
2022-08-30T01:38:50.898Z,48.83
2022-08-30T01:41:21.302Z,49.14
2022-08-30T01:43:49.190Z,48.81
2022-08-30T01:46:17.904Z,49.14
2022-08-30T01:48:51.978Z,49.10
2022-08-30T01:51:22.122Z,48.90
2022-08-30T01:53:49.860Z,49.11
2022-08-30T01:56:17.600Z,49.12
2022-08-30T01:58:46.811Z,49.11
2022-08-30T02:01:15.982Z,49.18
2022-08-30T02:03:45.222Z,49.00
2022-08-30T02:06:14.250Z,49.09
2022-08-30T02:08:42.176Z,49.05
2022-08-30T02:11:10.253Z,48.83
2022-08-30T02:13:38.580Z,48.36
2022-08-30T02:16:08.883Z,48.83
2022-08-30T02:18:37.288Z,48.91
2022-08-30T02:21:05.090Z,48.80
2022-08-30T02:23:32.856Z,49.04
2022-08-30T02:26:01.387Z,48.83
2022-08-30T02:28:29.173Z,48.82
2022-08-30T02:30:56.940Z,48.77
2022-08-30T02:33:26.022Z,48.81
2022-08-30T02:35:53.991Z,49.21
2022-08-30T02:38:21.697Z,48.87
2022-08-30T02:40:49.420Z,48.80
2022-08-30T02:43:17.268Z,48.83
2022-08-30T02:45:45.133Z,49.05
2022-08-30T02:48:12.883Z,48.93
2022-08-30T02:50:42.412Z,49.20
2022-08-30T02:53:10.149Z,48.97
2022-08-30T02:55:41.914Z,49.21
2022-08-30T02:58:10.599Z,49.25
2022-08-30T03:00:38.818Z,49.25
2022-08-30T03:03:07.522Z,48.75
2022-08-30T03:05:35.379Z,49.13
2022-08-30T03:08:09.230Z,49.00
2022-08-30T03:10:38.382Z,49.13
2022-08-30T03:13:07.584Z,49.01
2022-08-30T03:15:35.422Z,48.89
2022-08-30T03:18:03.179Z,49.10
2022-08-30T03:20:30.931Z,49.19
2022-08-30T03:22:58.665Z,49.21
2022-08-30T03:25:27.866Z,49.14
2022-08-30T03:27:55.604Z,48.84
2022-08-30T03:30:23.352Z,49.13
2022-08-30T03:32:51.458Z,48.84
2022-08-30T03:35:19.401Z,48.94
2022-08-30T03:37:47.252Z,49.08
2022-08-30T03:40:17.037Z,49.08
2022-08-30T03:42:47.959Z,48.83
2022-08-30T03:45:16.623Z,49.18
2022-08-30T03:47:44.409Z,48.90
2022-08-30T03:50:12.903Z,49.11
2022-08-30T03:52:40.674Z,49.00
2022-08-30T03:55:09.060Z,49.33
2022-08-30T03:57:36.799Z,49.10
2022-08-30T04:00:07.535Z,48.92
2022-08-30T04:02:35.310Z,49.09
2022-08-30T04:05:03.076Z,49.08
2022-08-30T04:07:30.803Z,48.95
2022-08-30T04:09:58.638Z,48.73
2022-08-30T04:12:26.342Z,48.88
2022-08-30T04:14:54.252Z,48.83
2022-08-30T04:17:23.650Z,49.13
2022-08-30T04:19:51.373Z,49.20
2022-08-30T04:22:19.426Z,48.98
2022-08-30T04:24:47.166Z,49.08
2022-08-30T04:27:14.891Z,49.04
2022-08-30T04:29:42.624Z,49.05
2022-08-30T04:32:10.359Z,48.94
2022-08-30T04:34:39.483Z,48.94
2022-08-30T04:37:07.221Z,49.14
2022-08-30T04:39:37.818Z,48.80
2022-08-30T04:42:05.605Z,49.00
2022-08-30T04:44:33.475Z,48.84
2022-08-30T04:47:01.167Z,49.02
2022-08-30T04:49:28.898Z,48.96
2022-08-30T04:51:58.407Z,49.21
2022-08-30T04:54:26.135Z,49.17
2022-08-30T04:56:53.884Z,48.89
2022-08-30T04:59:22.153Z,49.04
2022-08-30T05:01:49.912Z,48.96
2022-08-30T05:04:17.682Z,49.20
2022-08-30T05:06:45.411Z,49.02
2022-08-30T05:09:14.505Z,49.08
2022-08-30T05:11:43.347Z,49.36
2022-08-30T05:14:11.141Z,49.46
2022-08-30T05:16:38.888Z,49.42
2022-08-30T05:19:07.910Z,49.29
2022-08-30T05:21:35.730Z,49.40
2022-08-30T05:24:04.027Z,49.35
2022-08-30T05:26:34.012Z,49.49
2022-08-30T05:29:01.614Z,49.71
2022-08-30T05:31:30.554Z,49.88
2022-08-30T05:33:58.538Z,49.77
2022-08-30T05:36:27.087Z,49.77
2022-08-30T05:38:54.911Z,50.18
2022-08-30T05:41:22.915Z,50.11
2022-08-30T05:43:55.599Z,50.24
2022-08-30T05:46:23.377Z,50.04
2022-08-30T05:48:51.274Z,50.42
2022-08-30T05:51:20.416Z,52.06
2022-08-30T05:53:48.247Z,53.62
2022-08-30T05:56:17.120Z,53.95
2022-08-30T05:58:44.928Z,54.71
2022-08-30T06:01:21.818Z,55.12
2022-08-30T06:03:49.554Z,55.62
2022-08-30T06:06:17.424Z,56.32
2022-08-30T06:08:47.416Z,56.16
2022-08-30T06:11:15.294Z,56.83
2022-08-30T06:13:43.081Z,56.44
2022-08-30T06:16:12.441Z,56.97
2022-08-30T06:18:41.564Z,57.70
2022-08-30T06:21:13.311Z,57.58
2022-08-30T06:23:42.754Z,57.41
2022-08-30T06:26:10.500Z,57.74
2022-08-30T06:28:38.208Z,58.12
2022-08-30T06:31:07.273Z,58.30
2022-08-30T06:33:35.142Z,58.33
2022-08-30T06:36:05.951Z,58.33
2022-08-30T06:38:33.905Z,59.00
2022-08-30T06:41:01.660Z,58.55
2022-08-30T06:43:29.775Z,58.94
2022-08-30T06:45:57.505Z,58.71
2022-08-30T06:48:25.216Z,58.65
2022-08-30T06:50:54.720Z,58.50
2022-08-30T06:53:23.866Z,58.17
2022-08-30T06:55:56.866Z,58.40
2022-08-30T06:58:24.710Z,58.30
2022-08-30T07:00:52.474Z,58.56
2022-08-30T07:03:20.246Z,58.74
2022-08-30T07:05:48.780Z,58.83
2022-08-30T07:08:16.595Z,58.61
2022-08-30T07:10:45.787Z,58.45
2022-08-30T07:13:16.374Z,58.63
2022-08-30T07:15:45.040Z,59.00
2022-08-30T07:18:30.251Z,58.97
2022-08-30T07:20:58.824Z,59.22
2022-08-30T07:23:26.587Z,58.80
2022-08-30T07:25:55.702Z,59.08
2022-08-30T07:28:23.424Z,59.04
2022-08-30T07:30:51.495Z,58.75
2022-08-30T07:33:19.481Z,59.02
2022-08-30T07:35:47.364Z,59.40
2022-08-30T07:38:15.383Z,59.09
2022-08-30T07:40:43.181Z,59.12
2022-08-30T07:43:12.302Z,58.76
2022-08-30T07:45:40.140Z,58.83
2022-08-30T07:48:08.411Z,58.91
2022-08-30T07:50:36.135Z,58.82
2022-08-30T07:53:05.693Z,58.84
2022-08-30T07:55:35.719Z,59.27
2022-08-30T07:58:03.410Z,58.73
2022-08-30T08:00:32.591Z,58.77
2022-08-30T08:03:05.303Z,58.98
2022-08-30T08:05:33.091Z,58.87
2022-08-30T08:08:00.798Z,59.03
2022-08-30T08:10:28.540Z,58.93
2022-08-30T08:12:56.604Z,58.46
2022-08-30T08:15:25.771Z,58.62
2022-08-30T08:17:54.840Z,58.63
2022-08-30T08:20:22.588Z,58.85
2022-08-30T08:22:50.316Z,58.97
2022-08-30T08:25:18.284Z,59.14
2022-08-30T08:27:47.745Z,59.02
2022-08-30T08:30:15.732Z,58.45
2022-08-30T08:32:43.435Z,58.10
2022-08-30T08:35:12.592Z,58.19
2022-08-30T08:37:40.414Z,58.26
2022-08-30T08:40:09.430Z,57.77
2022-08-30T08:42:41.691Z,58.41
2022-08-30T08:45:12.735Z,58.28
2022-08-30T08:47:42.521Z,57.75
2022-08-30T08:50:17.369Z,57.80
2022-08-30T08:53:07.893Z,57.80
2022-08-30T08:55:35.691Z,57.55
2022-08-30T08:58:03.535Z,57.19
2022-08-30T09:00:31.274Z,57.21
2022-08-30T09:03:00.351Z,56.70
2022-08-30T09:05:31.298Z,56.22
2022-08-30T09:08:00.626Z,56.09
2022-08-30T09:10:49.327Z,55.98
2022-08-30T09:13:18.972Z,55.84
2022-08-30T09:15:49.935Z,55.83
2022-08-30T09:18:21.970Z,55.44
2022-08-30T09:20:52.465Z,55.42
2022-08-30T09:23:23.469Z,55.08
2022-08-30T09:25:52.765Z,55.00
2022-08-30T09:28:24.016Z,54.81
2022-08-30T09:31:06.027Z,54.83
2022-08-30T09:33:37.183Z,54.72
2022-08-30T09:36:17.452Z,54.76
2022-08-30T09:38:45.594Z,54.63
2022-08-30T09:41:38.405Z,54.13
2022-08-30T09:44:08.811Z,54.13
2022-08-30T09:46:44.116Z,54.05
2022-08-30T09:49:28.928Z,54.01
2022-08-30T09:52:03.150Z,54.10
2022-08-30T09:54:35.012Z,53.69
2022-08-30T09:57:05.369Z,53.91
2022-08-30T09:59:47.557Z,53.85
2022-08-30T10:02:28.466Z,53.60
2022-08-30T10:05:01.276Z,53.89
2022-08-30T10:07:34.392Z,53.78
2022-08-30T10:10:04.817Z,53.73
2022-08-30T10:12:36.781Z,53.20
2022-08-30T10:15:06.626Z,53.39
2022-08-30T10:17:41.728Z,53.28
2022-08-30T10:20:21.956Z,53.09
2022-08-30T10:22:52.178Z,53.05
2022-08-30T10:25:23.234Z,53.25
2022-08-30T10:27:53.164Z,53.12
2022-08-30T10:30:20.686Z,52.91
2022-08-30T10:32:52.339Z,52.35
2022-08-30T10:35:21.812Z,52.36
2022-08-30T10:37:53.446Z,52.58
2022-08-30T10:40:42.115Z,52.53
2022-08-30T10:43:19.934Z,52.39
2022-08-30T10:45:48.122Z,52.92
2022-08-30T10:48:19.353Z,52.62
2022-08-30T10:50:49.436Z,52.63
2022-08-30T10:53:19.379Z,52.59
2022-08-30T10:56:00.423Z,52.59
2022-08-30T10:58:31.333Z,52.65
2022-08-30T11:01:13.295Z,52.33
2022-08-30T11:04:02.142Z,52.58
2022-08-30T11:06:32.727Z,52.38
2022-08-30T11:09:06.630Z,52.40
2022-08-30T11:11:40.759Z,52.43
2022-08-30T11:14:08.839Z,52.57
2022-08-30T11:16:38.998Z,52.51
2022-08-30T11:19:15.203Z,52.63
2022-08-30T11:21:43.248Z,52.22
2022-08-30T11:24:13.205Z,52.64
2022-08-30T11:26:57.200Z,52.20
2022-08-30T11:29:39.331Z,51.89
2022-08-30T11:32:54.503Z,51.99
2022-08-30T11:35:36.747Z,51.76
2022-08-30T11:38:13.069Z,52.14
2022-08-30T11:40:48.300Z,51.77
2022-08-30T11:43:50.925Z,51.72
2022-08-30T11:46:24.340Z,52.11
2022-08-30T11:48:53.728Z,51.78
2022-08-30T11:51:50.882Z,51.43
2022-08-30T11:54:37.217Z,51.68
2022-08-30T11:57:10.851Z,51.46
2022-08-30T11:59:45.020Z,51.52
2022-08-30T12:02:47.564Z,51.25
2022-08-30T12:05:51.757Z,51.30
2022-08-30T12:08:55.134Z,51.69
2022-08-30T12:11:56.350Z,51.60
2022-08-30T12:14:51.970Z,51.39
2022-08-30T12:17:43.834Z,51.56
2022-08-30T12:20:22.727Z,51.50
2022-08-30T12:22:50.968Z,51.43
2022-08-30T12:25:23.476Z,51.41
2022-08-30T12:27:51.525Z,50.98
2022-08-30T12:30:28.105Z,51.36
2022-08-30T12:32:56.184Z,51.13
2022-08-30T12:35:26.022Z,51.35
2022-08-30T12:38:01.284Z,51.11
2022-08-30T12:40:31.105Z,51.38
2022-08-30T12:43:00.345Z,50.87
2022-08-30T12:45:31.814Z,51.35
2022-08-30T12:48:01.136Z,51.21
2022-08-30T12:50:29.872Z,51.21
2022-08-30T12:52:58.915Z,51.06
2022-08-30T12:55:28.206Z,50.95
2022-08-30T12:58:00.682Z,50.85
2022-08-30T13:00:31.696Z,51.00
2022-08-30T13:03:01.042Z,50.59
2022-08-30T13:05:48.453Z,50.89
2022-08-30T13:08:20.344Z,50.53
2022-08-30T13:10:54.181Z,50.44
2022-08-30T13:13:39.690Z,50.31
2022-08-30T13:16:26.280Z,50.25
2022-08-30T13:18:54.944Z,50.79
2022-08-30T13:21:25.414Z,50.47
2022-08-30T13:23:57.660Z,50.28
2022-08-30T13:26:26.174Z,50.45
2022-08-30T13:28:58.742Z,50.42
2022-08-30T13:31:28.518Z,50.36
2022-08-30T13:33:58.506Z,50.19
2022-08-30T13:36:28.738Z,50.28
2022-08-30T13:38:56.844Z,49.89
2022-08-30T13:41:26.107Z,49.66
2022-08-30T13:44:14.286Z,49.71
2022-08-30T13:46:52.512Z,49.63
2022-08-30T13:52:20.826Z,49.43
2022-08-30T13:54:50.050Z,49.45
2022-08-30T13:57:53.386Z,49.12
2022-08-30T14:00:07.623Z,49.15
2022-08-30T14:02:43.042Z,48.78
2022-08-30T14:05:37.589Z,48.94
2022-08-30T14:08:01.976Z,48.70
2022-08-30T14:10:30.888Z,48.59
2022-08-30T14:13:07.831Z,48.55
2022-08-30T14:15:38.853Z,48.87
2022-08-30T14:18:08.269Z,48.40
2022-08-30T14:20:38.656Z,47.47
2022-08-30T14:23:10.274Z,45.85
2022-08-30T14:25:40.773Z,44.80
2022-08-30T14:28:09.606Z,44.53
2022-08-30T14:30:38.863Z,44.57
2022-08-30T14:33:08.497Z,43.03
2022-08-30T14:35:36.744Z,43.36
2022-08-30T14:38:04.627Z,43.49
2022-08-30T14:40:33.891Z,43.17
2022-08-30T14:43:02.943Z,42.08
2022-08-30T14:45:30.668Z,42.38
2022-08-30T14:47:58.442Z,42.34
2022-08-30T14:50:27.985Z,42.53
2022-08-30T14:52:55.800Z,42.71
2022-08-30T14:55:23.636Z,43.16
2022-08-30T14:57:51.362Z,43.08
2022-08-30T15:00:19.807Z,43.15
2022-08-30T15:02:47.535Z,43.26
2022-08-30T15:05:16.081Z,43.44
2022-08-30T15:07:46.115Z,43.09
2022-08-30T15:10:14.819Z,43.12
2022-08-30T15:12:42.704Z,42.91
2022-08-30T15:15:19.650Z,43.14
2022-08-30T15:17:47.774Z,43.16
2022-08-30T15:20:18.726Z,43.14
2022-08-30T15:22:47.686Z,43.32
2022-08-30T15:25:15.529Z,43.50
2022-08-30T15:27:44.714Z,43.23
2022-08-30T15:30:13.103Z,43.47
2022-08-30T15:32:42.511Z,43.20
2022-08-30T15:35:11.344Z,43.43
2022-08-30T15:37:39.108Z,43.29
2022-08-30T15:40:10.031Z,42.95
2022-08-30T15:42:37.848Z,42.97
2022-08-30T15:45:06.544Z,43.00
2022-08-30T15:47:34.370Z,42.82
2022-08-30T15:50:03.997Z,42.84
2022-08-30T15:52:32.226Z,42.91
2022-08-30T15:54:59.994Z,42.74
2022-08-30T15:57:29.101Z,42.81
2022-08-30T15:59:56.813Z,42.62
2022-08-30T16:02:27.445Z,42.63
2022-08-30T16:04:55.705Z,42.73
2022-08-30T16:07:23.444Z,42.67
2022-08-30T16:09:51.200Z,42.53
2022-08-30T16:12:23.805Z,42.56
2022-08-30T16:14:53.061Z,42.79
2022-08-30T16:17:20.808Z,42.66
2022-08-30T16:19:48.546Z,42.50
2022-08-30T16:22:18.644Z,42.75
2022-08-30T16:24:50.048Z,42.48
2022-08-30T16:27:17.775Z,42.52
2022-08-30T16:29:45.479Z,42.50
2022-08-30T16:32:14.539Z,42.71
2022-08-30T16:34:42.242Z,42.49
2022-08-30T16:37:10.770Z,42.41
2022-08-30T16:41:58.180Z,42.32
2022-08-30T16:44:29.738Z,42.40
2022-08-30T16:46:57.860Z,42.24
2022-08-30T16:49:26.964Z,42.27
2022-08-30T16:51:54.699Z,42.20
2022-08-30T16:54:22.478Z,42.05
2022-08-30T16:56:50.191Z,42.15
2022-08-30T16:59:18.930Z,42.09
2022-08-30T17:01:48.208Z,42.14
2022-08-30T17:04:18.425Z,42.31
2022-08-30T17:06:49.659Z,42.20
2022-08-30T17:09:17.855Z,42.24
2022-08-30T17:11:45.673Z,42.13
2022-08-30T17:14:13.389Z,42.23
2022-08-30T17:16:42.288Z,42.14
2022-08-30T17:19:12.998Z,41.99
2022-08-30T17:21:40.735Z,41.81
2022-08-30T17:24:09.801Z,41.80
2022-08-30T17:26:40.051Z,41.88
2022-08-30T17:29:08.054Z,42.01
2022-08-30T17:31:35.877Z,41.78
2022-08-30T17:34:05.702Z,41.90
2022-08-30T17:36:35.303Z,41.98
2022-08-30T17:39:10.474Z,41.96
2022-08-30T17:41:41.165Z,42.23
2022-08-30T17:44:13.436Z,42.41
2022-08-30T17:46:41.283Z,42.29
2022-08-30T17:49:10.503Z,42.38
2022-08-30T17:51:40.897Z,42.35
2022-08-30T17:54:09.153Z,42.70
2022-08-30T17:56:36.850Z,42.77
2022-08-30T17:59:08.029Z,42.87
2022-08-30T18:01:37.193Z,42.87
2022-08-30T18:04:06.384Z,43.14
2022-08-30T18:06:34.465Z,42.99
2022-08-30T18:09:02.196Z,43.16
2022-08-30T18:11:29.938Z,42.91
2022-08-30T18:13:57.676Z,43.15
2022-08-30T18:16:26.983Z,43.19
2022-08-30T18:18:57.215Z,43.48
2022-08-30T18:21:25.450Z,43.50
2022-08-30T18:23:56.240Z,43.75
2022-08-30T18:26:24.389Z,43.69
2022-08-30T18:28:52.264Z,43.70
2022-08-30T18:31:20.008Z,43.82
2022-08-30T18:33:49.084Z,43.86
2022-08-30T18:36:16.803Z,43.90
2022-08-30T18:38:45.430Z,43.89
2022-08-30T18:41:15.262Z,43.87
2022-08-30T18:43:43.169Z,44.21
2022-08-30T18:46:16.184Z,43.80
2022-08-30T18:48:45.995Z,44.00
2022-08-30T18:51:16.145Z,44.15
2022-08-30T18:53:44.238Z,44.04
2022-08-30T18:56:12.126Z,44.47
2022-08-30T18:58:40.398Z,44.50
2022-08-30T19:01:12.902Z,44.37
2022-08-30T19:03:41.833Z,44.61
2022-08-30T19:06:11.315Z,44.53
2022-08-30T19:08:41.317Z,44.67
2022-08-30T19:11:13.552Z,44.50
2022-08-30T19:13:41.272Z,44.63
2022-08-30T19:16:08.977Z,44.67
2022-08-30T19:18:39.947Z,44.76
2022-08-30T19:21:13.550Z,44.58
2022-08-30T19:23:56.846Z,44.73
2022-08-30T19:26:27.458Z,44.69
2022-08-30T19:28:55.424Z,44.69
2022-08-30T19:31:23.142Z,44.60
2022-08-30T19:33:50.909Z,44.78
2022-08-30T19:36:18.609Z,44.72
2022-08-30T19:38:46.325Z,44.45
2022-08-30T19:41:15.354Z,44.61
2022-08-30T19:43:43.085Z,44.59
2022-08-30T19:46:10.929Z,44.78
2022-08-30T19:48:42.998Z,44.51
2022-08-30T19:51:10.890Z,44.67
2022-08-30T19:53:38.603Z,44.74
2022-08-30T19:56:06.638Z,44.85
2022-08-30T19:58:36.299Z,44.71
2022-08-30T20:01:10.814Z,44.95
2022-08-30T20:03:40.130Z,45.22
2022-08-30T20:06:08.155Z,45.14
2022-08-30T20:08:36.772Z,44.96
2022-08-30T20:11:04.583Z,45.01
2022-08-30T20:13:34.251Z,45.10
2022-08-30T20:16:03.966Z,45.04
2022-08-30T20:18:31.737Z,45.08
2022-08-30T20:20:59.448Z,45.56
2022-08-30T20:23:28.428Z,45.37
2022-08-30T20:25:56.384Z,45.05
2022-08-30T20:28:24.605Z,45.08
2022-08-30T20:30:52.458Z,45.11
2022-08-30T20:33:21.844Z,45.61
2022-08-30T20:35:49.985Z,45.20
2022-08-30T20:38:20.692Z,45.76
2022-08-30T20:40:50.179Z,45.37
2022-08-30T20:43:18.899Z,45.54
2022-08-30T20:45:46.672Z,45.38
2022-08-30T20:48:14.479Z,45.38
2022-08-30T20:50:43.652Z,45.70
2022-08-30T20:53:11.444Z,45.77
2022-08-30T20:55:41.535Z,45.59
2022-08-30T20:58:09.615Z,45.64
2022-08-30T21:00:37.374Z,45.40
2022-08-30T21:03:25.672Z,45.44
2022-08-30T21:05:56.453Z,45.83
2022-08-30T21:08:25.028Z,45.78
2022-08-30T21:10:52.908Z,45.59
2022-08-30T21:13:20.659Z,45.66
2022-08-30T21:15:52.123Z,45.90
2022-08-30T21:18:19.859Z,45.63
2022-08-30T21:20:47.648Z,45.97
2022-08-30T21:23:17.191Z,45.64
2022-08-30T21:25:44.906Z,46.10
2022-08-30T21:28:12.755Z,46.01
2022-08-30T21:30:40.606Z,46.13
2022-08-30T21:33:08.812Z,46.15
2022-08-30T21:35:55.230Z,46.09
2022-08-30T21:38:24.660Z,46.12
2022-08-30T21:40:52.459Z,45.82
2022-08-30T21:43:20.196Z,45.70
2022-08-30T21:45:50.238Z,45.77
2022-08-30T21:48:18.216Z,46.25
2022-08-30T21:50:46.505Z,45.77
2022-08-30T21:53:15.391Z,45.82
2022-08-30T21:55:48.121Z,46.01
2022-08-30T21:58:16.191Z,45.97
2022-08-30T22:00:43.923Z,46.02
2022-08-30T22:03:11.714Z,45.93
2022-08-30T22:05:39.475Z,45.96
2022-08-30T22:08:07.211Z,46.03
2022-08-30T22:10:34.936Z,46.23
2022-08-30T22:13:03.991Z,46.30
2022-08-30T22:15:32.254Z,46.12
2022-08-30T22:18:00.624Z,46.03
2022-08-30T22:20:30.567Z,46.41
2022-08-30T22:22:58.457Z,46.15
2022-08-30T22:25:26.558Z,46.28
2022-08-30T22:27:54.286Z,46.12
2022-08-30T22:30:23.452Z,46.38
2022-08-30T22:32:52.657Z,46.28
2022-08-30T22:35:20.939Z,46.46
2022-08-30T22:37:53.638Z,46.30
2022-08-30T22:40:21.992Z,46.45
2022-08-30T22:42:49.769Z,46.52
2022-08-30T22:45:17.649Z,46.60
2022-08-30T22:47:46.728Z,46.62
2022-08-30T22:50:14.424Z,46.61
2022-08-30T22:52:42.159Z,46.35
2022-08-30T22:55:09.943Z,46.59
2022-08-30T22:57:37.779Z,46.78
2022-08-30T23:00:07.591Z,46.78
2022-08-30T23:02:36.475Z,46.74
2022-08-30T23:05:06.142Z,46.57
2022-08-30T23:07:33.907Z,46.81
2022-08-30T23:10:01.709Z,46.51
2022-08-30T23:12:29.516Z,46.54
2022-08-30T23:14:57.254Z,46.67
2022-08-30T23:17:24.979Z,46.25
2022-08-30T23:19:53.636Z,46.54
2022-08-30T23:22:22.714Z,46.43
2022-08-30T23:25:13.247Z,46.60
2022-08-30T23:28:01.231Z,46.41
2022-08-30T23:30:46.536Z,46.53
2022-08-30T23:33:31.719Z,46.80
2022-08-30T23:36:17.086Z,46.72
2022-08-30T23:39:03.923Z,46.75
2022-08-30T23:41:49.532Z,46.81
2022-08-30T23:44:34.912Z,46.96
2022-08-30T23:47:20.085Z,46.88
2022-08-30T23:50:05.282Z,46.68
2022-08-30T23:52:50.632Z,46.56
2022-08-30T23:55:37.292Z,47.04
2022-08-30T23:58:22.636Z,47.03
